Time;durP1;ratioP1;P1;durP2;ratioP2;P2;SDS_P1;SDS_P2;PMS_P1;PMS_P2;Temp;Humidity;BMP_temperature;BMP_pressure;BME280_temperature;BME280_humidity;BME280_pressure;Samples;Min_cycle;Max_cycle;Signal;HPM_P1;HPM_P2
2021/04/18 00:01:37;;;;;;;16.57;14.87;;;;;;;6.70;90.50;99387.11;1748885;81;20956;-57
2021/04/18 00:04:06;;;;;;;16.52;14.83;;;;;;;6.70;90.52;99392.39;1748813;81;21242;-57
2021/04/18 00:06:53;;;;;;;17.27;15.55;;;;;;;6.70;90.57;99389.23;1743781;82;21122;-57
2021/04/18 00:09:21;;;;;;;16.62;14.93;;;;;;;6.73;90.70;99396.88;1685234;83;21363;-57
2021/04/18 00:11:48;;;;;;;15.65;14.05;;;;;;;6.74;90.80;99399.03;1670410;84;21205;-57
2021/04/18 00:14:15;;;;;;;13.32;11.97;;;;;;;6.76;90.86;99393.10;1670285;84;21124;-57
2021/04/18 00:16:43;;;;;;;16.02;14.47;;;;;;;6.77;90.82;99396.09;1660855;84;21203;-57
2021/04/18 00:19:10;;;;;;;17.45;15.60;;;;;;;6.76;90.79;99393.94;1685222;83;21130;-57
2021/04/18 00:21:38;;;;;;;16.40;14.75;;;;;;;6.75;90.83;99388.81;1685347;83;22269;-57
2021/04/18 00:24:06;;;;;;;16.87;14.93;;;;;;;6.74;90.90;99386.66;1685052;83;21039;-59
2021/04/18 00:26:35;;;;;;;17.90;16.10;;;;;;;6.75;90.82;99383.52;1721809;81;21126;-58
2021/04/18 00:29:02;;;;;;;20.68;17.62;;;;;;;6.74;90.91;99385.33;1723129;81;21038;-59
2021/04/18 00:31:30;;;;;;;19.45;17.45;;;;;;;6.75;91.08;99383.52;1723082;81;21137;-60
2021/04/18 00:34:00;;;;;;;19.95;16.48;;;;;;;6.78;91.03;99384.52;1723009;81;21380;-58
2021/04/18 00:36:30;;;;;;;17.85;16.00;;;;;;;6.79;90.80;99376.95;1690479;84;21227;-57
2021/04/18 00:38:58;;;;;;;17.05;15.43;;;;;;;6.79;90.80;99375.14;1666138;83;21127;-57
2021/04/18 00:41:26;;;;;;;18.17;16.32;;;;;;;6.79;90.76;99375.63;1685193;83;21044;-58
2021/04/18 00:43:53;;;;;;;17.67;16.00;;;;;;;6.79;90.65;99372.50;1684872;83;21072;-58
2021/04/18 00:46:21;;;;;;;17.92;16.23;;;;;;;6.77;90.26;99366.53;1685170;83;23513;-57
2021/04/18 00:48:48;;;;;;;18.75;16.85;;;;;;;6.74;90.19;99364.17;1685190;83;21191;-59
2021/04/18 00:51:15;;;;;;;17.52;15.78;;;;;;;6.71;90.17;99365.80;1685328;83;21022;-59
2021/04/18 00:53:43;;;;;;;16.75;15.05;;;;;;;6.70;90.33;99363.31;1684262;83;21065;-58
2021/04/18 00:56:10;;;;;;;16.45;14.80;;;;;;;6.69;90.11;99364.28;1690116;83;21132;-57
2021/04/18 00:58:39;;;;;;;15.50;13.98;;;;;;;6.67;90.00;99367.56;1685279;83;21386;-57
2021/04/18 01:01:07;;;;;;;16.30;14.60;;;;;;;6.66;90.18;99363.25;1656114;83;21193;-58
2021/04/18 01:03:37;;;;;;;14.13;12.68;;;;;;;6.64;90.07;99370.02;1685322;83;21494;-58
2021/04/18 01:06:05;;;;;;;16.17;14.55;;;;;;;6.62;90.02;99367.18;1684519;83;20986;-57
2021/04/18 01:08:34;;;;;;;14.47;13.08;;;;;;;6.59;89.98;99370.95;1679359;83;21097;-57
2021/04/18 01:11:03;;;;;;;13.72;12.33;;;;;;;6.60;90.23;99370.44;1675896;83;21386;-58
2021/04/18 01:13:30;;;;;;;15.63;13.53;;;;;;;6.59;90.22;99365.66;1675845;83;21187;-57
2021/04/18 01:15:58;;;;;;;14.98;13.45;;;;;;;6.59;90.19;99363.02;1674947;83;21085;-57
2021/04/18 01:18:25;;;;;;;13.93;12.50;;;;;;;6.59;90.12;99363.51;1675810;83;20954;-58
2021/04/18 01:21:08;;;;;;;14.93;13.32;;;;;;;6.58;90.19;99364.48;1675917;83;21598;-57
2021/04/18 01:23:54;;;;;;;15.60;13.53;;;;;;;6.58;90.22;99365.80;1659792;83;21357;-57
2021/04/18 01:26:30;;;;;;;16.67;14.87;;;;;;;6.58;90.38;99361.83;1676048;83;21609;-58
2021/04/18 01:28:59;;;;;;;14.23;12.73;;;;;;;6.58;90.38;99361.83;1675920;83;20974;-59
2021/04/18 01:31:26;;;;;;;14.70;13.20;;;;;;;6.60;90.45;99355.91;1675824;83;21148;-58
2021/04/18 01:33:53;;;;;;;15.80;13.85;;;;;;;6.61;90.31;99358.89;1675857;83;21123;-57
2021/04/18 01:36:21;;;;;;;15.30;13.38;;;;;;;6.58;90.11;99363.99;1673761;83;21385;-58
2021/04/18 01:38:50;;;;;;;14.53;12.90;;;;;;;6.55;90.20;99358.16;1675617;83;21218;-58
2021/04/18 01:41:17;;;;;;;16.23;14.23;;;;;;;6.56;90.30;99361.16;1675836;83;21013;-58
2021/04/18 01:43:45;;;;;;;14.83;13.32;;;;;;;6.55;90.16;99362.96;1675758;83;21123;-57
2021/04/18 01:46:13;;;;;;;15.35;13.83;;;;;;;6.55;90.18;99364.28;1674473;83;21093;-58
2021/04/18 01:48:42;;;;;;;14.90;13.20;;;;;;;6.55;90.18;99360.31;1712772;82;21376;-59
2021/04/18 01:51:10;;;;;;;15.30;13.70;;;;;;;6.56;90.04;99365.12;1712991;82;21141;-60
2021/04/18 01:53:39;;;;;;;15.68;13.28;;;;;;;6.53;90.03;99372.02;1713565;82;21053;-59
2021/04/18 01:56:08;;;;;;;14.73;13.25;;;;;;;6.51;90.02;99362.92;1712185;82;21154;-57
2021/04/18 01:58:38;;;;;;;15.18;13.58;;;;;;;6.50;90.11;99364.38;1712832;82;21154;-57
2021/04/18 02:01:29;;;;;;;15.63;14.10;;;;;;;6.54;89.97;99364.44;1841141;78;22674;-57
2021/04/18 02:03:58;;;;;;;14.78;13.28;;;;;;;6.49;89.95;99369.34;1811971;79;20990;-59
2021/04/18 02:06:27;;;;;;;15.50;14.00;;;;;;;6.49;90.09;99368.02;1807050;78;21251;-57
2021/04/18 02:08:57;;;;;;;15.75;14.05;;;;;;;6.50;90.01;99363.89;1718233;81;21523;-57
2021/04/18 02:11:26;;;;;;;15.55;13.98;;;;;;;6.49;90.06;99372.79;1743969;82;21010;-56
2021/04/18 02:13:55;;;;;;;15.03;13.43;;;;;;;6.49;89.98;99371.47;1728605;82;20945;-59
2021/04/18 02:16:30;;;;;;;12.75;11.50;;;;;;;6.49;90.11;99370.66;1727558;81;21037;-57
2021/04/18 02:18:59;;;;;;;14.73;13.20;;;;;;;6.51;90.01;99372.66;1746013;80;21156;-58
2021/04/18 02:21:27;;;;;;;14.07;12.53;;;;;;;6.50;89.73;99373.63;1777700;80;21009;-58
2021/04/18 02:23:55;;;;;;;14.45;13.05;;;;;;;6.47;89.78;99380.04;1762916;80;21049;-56
2021/04/18 02:26:23;;;;;;;13.68;12.37;;;;;;;6.46;89.62;99378.39;1719960;80;21160;-57
2021/04/18 02:28:50;;;;;;;13.72;12.43;;;;;;;6.47;89.65;99368.63;1730409;82;21061;-57
2021/04/18 02:31:18;;;;;;;14.30;12.80;;;;;;;6.46;89.45;99360.37;1728530;82;21202;-59
2021/04/18 02:33:46;;;;;;;14.53;12.78;;;;;;;6.47;89.63;99358.06;1772686;80;20950;-58
2021/04/18 02:36:15;;;;;;;14.07;12.68;;;;;;;6.49;89.65;99354.29;1752713;80;21006;-58
2021/04/18 02:38:44;;;;;;;14.23;12.78;;;;;;;6.52;89.59;99351.84;1778061;80;21013;-58
2021/04/18 02:41:14;;;;;;;13.50;12.07;;;;;;;6.52;89.35;99347.39;1774750;80;21538;-56
2021/04/18 02:43:42;;;;;;;13.93;12.33;;;;;;;6.53;89.24;99350.88;1780870;80;21446;-56
2021/04/18 02:46:10;;;;;;;14.05;12.75;;;;;;;6.53;89.21;99345.11;1774835;80;20997;-57
2021/04/18 02:48:38;;;;;;;14.13;12.63;;;;;;;6.54;89.20;99341.49;1739996;82;20934;-57
2021/04/18 02:51:06;;;;;;;13.05;10.82;;;;;;;6.54;89.08;99333.56;1769000;80;21120;-58
2021/04/18 02:53:35;;;;;;;12.78;11.48;;;;;;;6.55;88.91;99340.49;1767674;80;21119;-57
2021/04/18 02:56:04;;;;;;;12.75;11.45;;;;;;;6.54;88.72;99334.05;1767109;80;21438;-59
2021/04/18 02:58:58;;;;;;;13.58;11.70;;;;;;;6.56;88.72;99335.56;1833791;78;22689;-58
2021/04/18 03:01:27;;;;;;;14.13;12.55;;;;;;;6.50;88.55;99333.98;1785306;79;20993;-58
2021/04/18 03:03:57;;;;;;;13.62;12.18;;;;;;;6.50;88.41;99337.95;1797787;79;21429;-59
2021/04/18 03:06:26;;;;;;;14.18;11.80;;;;;;;6.52;88.28;99346.55;1792367;79;21040;-59
2021/04/18 03:08:55;;;;;;;13.38;12.00;;;;;;;6.52;88.24;99342.11;1801061;79;20989;-57
2021/04/18 03:11:23;;;;;;;12.23;10.90;;;;;;;6.54;88.19;99341.49;1746341;80;21031;-57
2021/04/18 03:13:51;;;;;;;12.20;11.00;;;;;;;6.53;88.16;99341.14;1777661;80;21048;-57
2021/04/18 03:16:19;;;;;;;12.10;10.88;;;;;;;6.53;88.20;99340.30;1751843;81;21550;-57
2021/04/18 03:18:47;;;;;;;14.53;11.75;;;;;;;6.53;88.15;99341.14;1749891;82;21454;-58
2021/04/18 03:21:15;;;;;;;12.28;10.98;;;;;;;6.52;88.02;99342.59;1750382;80;21006;-57
2021/04/18 03:23:44;;;;;;;13.20;11.22;;;;;;;6.50;87.99;99345.87;1756537;80;21124;-57
2021/04/18 03:26:14;;;;;;;13.43;11.03;;;;;;;6.49;87.83;99348.20;1757977;80;21147;-56
2021/04/18 03:28:42;;;;;;;12.40;11.20;;;;;;;6.48;87.79;99347.36;1747440;82;21264;-58
2021/04/18 03:31:12;;;;;;;11.70;10.50;;;;;;;6.49;87.76;99338.95;1758383;80;21168;-58
2021/04/18 03:33:42;;;;;;;13.10;11.10;;;;;;;6.49;87.86;99337.63;1728418;81;21006;-56
2021/04/18 03:36:12;;;;;;;15.13;13.53;;;;;;;6.50;87.80;99340.59;1732023;81;20954;-57
2021/04/18 03:38:41;;;;;;;13.05;11.73;;;;;;;6.49;87.80;99338.43;1747657;80;21044;-56
2021/04/18 03:41:09;;;;;;;14.03;12.40;;;;;;;6.48;87.78;99343.88;1750647;80;22458;-56
2021/04/18 03:43:40;;;;;;;15.98;13.50;;;;;;;6.47;87.92;99340.39;1754537;80;21085;-59
2021/04/18 03:46:10;;;;;;;14.87;13.32;;;;;;;6.47;87.75;99339.08;1761507;80;20960;-56
2021/04/18 03:48:46;;;;;;;15.08;13.45;;;;;;;6.47;87.88;99339.08;1748065;80;20988;-56
2021/04/18 03:51:14;;;;;;;15.03;13.38;;;;;;;6.48;87.91;99338.11;1761959;80;21160;-57
2021/04/18 03:53:52;;;;;;;15.70;14.18;;;;;;;6.50;88.06;99332.66;1772921;80;21195;-57
2021/04/18 03:56:22;;;;;;;15.65;14.15;;;;;;;6.49;88.08;99331.02;1742765;80;21069;-56
2021/04/18 03:58:50;;;;;;;15.53;14.03;;;;;;;6.49;88.13;99337.63;1751116;80;20935;-58
2021/04/18 04:01:19;;;;;;;15.90;14.20;;;;;;;6.50;88.26;99342.75;1745552;81;20930;-56
2021/04/18 04:03:47;;;;;;;18.48;16.35;;;;;;;6.54;88.22;99340.17;1748926;81;21128;-58
2021/04/18 04:06:17;;;;;;;20.52;16.73;;;;;;;6.55;88.13;99345.78;1761194;81;21401;-56
2021/04/18 04:08:47;;;;;;;17.48;15.45;;;;;;;6.57;88.24;99348.30;1745988;80;21023;-57
2021/04/18 04:11:17;;;;;;;16.95;15.32;;;;;;;6.58;88.29;99342.84;1745173;80;21149;-58
2021/04/18 04:13:46;;;;;;;17.40;15.60;;;;;;;6.62;88.24;99340.75;1748151;81;21188;-57
2021/04/18 04:16:14;;;;;;;20.48;16.97;;;;;;;6.60;88.06;99336.08;1767216;80;21562;-58
2021/04/18 04:18:43;;;;;;;19.35;14.78;;;;;;;6.56;88.17;99332.08;1762929;81;21372;-57
2021/04/18 04:21:12;;;;;;;17.07;14.80;;;;;;;6.55;88.38;99335.69;1705125;82;21569;-57
2021/04/18 04:23:44;;;;;;;18.70;15.93;;;;;;;6.55;88.44;99334.37;1759056;81;21018;-57
2021/04/18 04:26:12;;;;;;;16.15;13.58;;;;;;;6.56;88.63;99331.59;1743676;80;21653;-59
2021/04/18 04:28:40;;;;;;;15.10;13.50;;;;;;;6.60;88.63;99326.83;1720462;82;21145;-58
2021/04/18 04:31:07;;;;;;;16.62;13.35;;;;;;;6.63;88.58;99326.05;1725006;82;21391;-58
2021/04/18 04:33:36;;;;;;;16.35;14.68;;;;;;;6.67;88.79;99326.59;1710172;82;20995;-57
2021/04/18 04:36:06;;;;;;;15.53;13.90;;;;;;;6.67;88.85;99332.69;1756354;80;21144;-59
2021/04/18 04:38:34;;;;;;;16.07;14.35;;;;;;;6.70;88.95;99330.27;1733118;81;21018;-59
2021/04/18 04:41:02;;;;;;;15.08;13.43;;;;;;;6.75;88.99;99330.65;1754405;81;21543;-58
2021/04/18 04:43:31;;;;;;;16.80;12.18;;;;;;;6.81;88.72;99332.67;1803557;79;21587;-58
2021/04/18 04:46:00;;;;;;;15.10;12.88;;;;;;;6.82;88.40;99330.37;1793538;79;20967;-58
2021/04/18 04:48:28;;;;;;;14.53;12.43;;;;;;;6.81;88.46;99324.73;1795364;79;21085;-57
2021/04/18 04:50:56;;;;;;;20.95;13.65;;;;;;;6.80;88.40;99328.38;1783465;79;20945;-58
2021/04/18 04:53:23;;;;;;;18.95;12.55;;;;;;;6.75;88.47;99329.33;1798775;79;21653;-58
2021/04/18 04:55:51;;;;;;;17.20;11.70;;;;;;;6.71;88.76;99327.94;1802968;79;21373;-59
2021/04/18 04:58:18;;;;;;;19.02;10.93;;;;;;;6.68;88.88;99337.48;1797045;79;20938;-58
2021/04/18 05:00:48;;;;;;;23.35;13.15;;;;;;;6.66;89.19;99331.53;1792902;79;20929;-58
2021/04/18 05:03:16;;;;;;;22.90;14.58;;;;;;;6.67;89.32;99338.48;1771403;79;21002;-59
2021/04/18 05:05:44;;;;;;;18.82;12.23;;;;;;;6.66;89.36;99335.49;1791145;79;21183;-58
2021/04/18 05:08:11;;;;;;;24.35;13.05;;;;;;;6.66;89.40;99335.49;1782676;79;21328;-57
2021/04/18 05:10:39;;;;;;;17.25;11.88;;;;;;;6.65;89.59;99339.94;1791062;79;21015;-58
2021/04/18 05:13:06;;;;;;;20.20;11.57;;;;;;;6.62;89.62;99338.11;1769297;79;21113;-58
2021/04/18 05:15:35;;;;;;;16.32;12.15;;;;;;;6.62;89.75;99332.82;1780119;79;21191;-58
2021/04/18 05:18:04;;;;;;;17.57;10.68;;;;;;;6.63;89.98;99335.78;1776743;79;21161;-58
2021/04/18 05:20:32;;;;;;;15.88;11.38;;;;;;;6.65;90.06;99334.66;1805129;78;21329;-58
2021/04/18 05:23:02;;;;;;;19.25;13.13;;;;;;;6.68;90.06;99337.48;1776470;79;21061;-58
2021/04/18 05:25:30;;;;;;;12.53;9.93;;;;;;;6.72;90.05;99331.78;1799054;79;21104;-57
2021/04/18 05:27:57;;;;;;;12.10;10.13;;;;;;;6.76;89.74;99334.94;1725103;82;21208;-58
2021/04/18 05:30:26;;;;;;;14.95;10.03;;;;;;;6.77;89.62;99328.67;1745295;80;21205;-58
2021/04/18 05:32:54;;;;;;;15.08;10.63;;;;;;;6.77;89.50;99327.36;1793505;79;21334;-58
2021/04/18 05:35:21;;;;;;;14.95;9.93;;;;;;;6.76;89.45;99327.84;1778214;79;21155;-59
2021/04/18 05:37:49;;;;;;;12.40;9.73;;;;;;;6.75;89.45;99326.16;1728692;82;21068;-58
2021/04/18 05:40:18;;;;;;;17.37;10.70;;;;;;;6.78;89.62;99323.70;1797883;79;20963;-58
2021/04/18 05:42:45;;;;;;;15.20;10.88;;;;;;;6.78;89.54;99325.03;1792507;79;21121;-57
2021/04/18 05:45:12;;;;;;;14.68;10.13;;;;;;;6.78;89.46;99323.70;1775576;79;21190;-57
2021/04/18 05:47:42;;;;;;;17.92;10.93;;;;;;;6.80;89.53;99323.90;1761006;80;21164;-57
2021/04/18 05:50:11;;;;;;;17.82;11.18;;;;;;;6.83;89.30;99320.95;1745300;81;21160;-59
2021/04/18 05:52:39;;;;;;;19.67;13.18;;;;;;;6.87;89.09;99316.70;1727295;83;21687;-59
2021/04/18 05:55:08;;;;;;;20.88;12.55;;;;;;;6.92;89.04;99314.43;1749052;81;21117;-57
2021/04/18 05:57:37;;;;;;;18.45;12.63;;;;;;;6.98;88.87;99317.31;1740366;81;21587;-58
2021/04/18 06:00:06;;;;;;;19.07;13.00;;;;;;;7.01;88.49;99313.05;1736568;81;21009;-59
2021/04/18 06:02:35;;;;;;;19.48;13.30;;;;;;;7.03;88.40;99311.08;1742887;80;21152;-58
2021/04/18 06:05:05;;;;;;;18.20;12.45;;;;;;;7.10;88.45;99317.91;1739048;80;21156;-59
2021/04/18 06:07:34;;;;;;;15.55;11.43;;;;;;;7.15;88.06;99312.50;1741052;80;21145;-60
2021/04/18 06:10:04;;;;;;;19.95;12.53;;;;;;;7.22;87.86;99308.25;1735175;82;21992;-58
2021/04/18 06:12:32;;;;;;;20.20;12.70;;;;;;;7.28;87.84;99310.30;1758764;81;20958;-58
2021/04/18 06:15:00;;;;;;;24.40;14.43;;;;;;;7.33;87.58;99306.69;1724875;82;20953;-59
2021/04/18 06:17:27;;;;;;;27.65;14.90;;;;;;;7.38;87.42;99307.06;1736656;81;21005;-59
2021/04/18 06:19:55;;;;;;;21.37;13.08;;;;;;;7.47;86.98;99311.93;1716930;82;21046;-62
2021/04/18 06:22:22;;;;;;;23.67;14.23;;;;;;;7.54;86.54;99311.64;1743650;81;21387;-59
2021/04/18 06:24:50;;;;;;;23.52;13.68;;;;;;;7.61;86.34;99314.02;1735438;81;21503;-58
2021/04/18 06:27:18;;;;;;;21.77;14.20;;;;;;;7.72;86.02;99319.52;1786334;79;20977;-58
2021/04/18 06:29:45;;;;;;;18.37;11.73;;;;;;;7.78;85.37;99326.86;1789563;79;20980;-59
2021/04/18 06:32:12;;;;;;;18.23;12.07;;;;;;;7.81;85.11;99325.22;1790249;79;21176;-57
2021/04/18 06:34:42;;;;;;;18.82;13.10;;;;;;;7.82;85.02;99321.60;1801388;79;21428;-58
2021/04/18 06:37:11;;;;;;;16.20;12.37;;;;;;;7.88;84.94;99331.55;1784497;79;21096;-58
2021/04/18 06:39:39;;;;;;;21.73;13.25;;;;;;;7.91;84.67;99327.27;1785868;79;21029;-60
2021/04/18 06:42:07;;;;;;;17.25;12.15;;;;;;;7.96;84.26;99328.46;1790888;79;21594;-59
2021/04/18 06:44:35;;;;;;;18.17;12.68;;;;;;;8.04;84.02;99325.02;1784018;79;21133;-58
2021/04/18 06:47:02;;;;;;;17.62;12.07;;;;;;;8.11;83.74;99330.02;1792890;79;21324;-58
2021/04/18 06:49:30;;;;;;;18.23;12.55;;;;;;;8.15;83.14;99327.41;1797727;79;21010;-60
2021/04/18 06:51:58;;;;;;;18.87;13.13;;;;;;;8.14;82.59;99329.70;1731794;80;20952;-59
2021/04/18 06:54:26;;;;;;;17.80;11.93;;;;;;;8.16;82.32;99329.05;1739278;81;21317;-59
2021/04/18 06:56:53;;;;;;;19.62;12.85;;;;;;;8.21;81.96;99337.87;1754845;80;21176;-61
2021/04/18 06:59:24;;;;;;;19.23;12.10;;;;;;;8.25;81.84;99335.22;1789784;78;21828;-58
2021/04/18 07:01:53;;;;;;;20.20;13.08;;;;;;;8.34;81.97;99333.80;1786308;79;21164;-57
2021/04/18 07:04:22;;;;;;;19.98;14.13;;;;;;;8.49;81.67;99338.02;1790803;79;21144;-58
2021/04/18 07:06:52;;;;;;;18.65;13.35;;;;;;;8.59;81.37;99341.36;1775428;79;21054;-58
2021/04/18 07:09:23;;;;;;;20.35;13.62;;;;;;;8.68;80.81;99341.21;1780933;79;21065;-59
2021/04/18 07:12:01;;;;;;;21.87;14.80;;;;;;;8.77;80.28;99339.91;1745817;81;20950;-59
2021/04/18 07:14:37;;;;;;;19.67;12.90;;;;;;;8.85;79.98;99345.23;1787325;79;21177;-57
2021/04/18 07:17:14;;;;;;;16.30;11.10;;;;;;;8.96;79.88;99346.27;1783789;79;21638;-58
2021/04/18 07:19:43;;;;;;;15.48;11.40;;;;;;;9.06;78.91;99344.28;1772731;79;21052;-59
2021/04/18 07:22:11;;;;;;;16.82;11.53;;;;;;;9.16;77.99;99345.79;1748398;81;21576;-62
2021/04/18 07:24:56;;;;;;;15.20;11.33;;;;;;;9.26;77.58;99340.31;1780966;79;21381;-58
2021/04/18 07:27:24;;;;;;;14.00;11.50;;;;;;;9.33;76.59;99343.98;1787674;79;21121;-59
2021/04/18 07:29:57;;;;;;;13.58;10.93;;;;;;;9.38;76.63;99345.65;1780582;79;21557;-57
2021/04/18 07:32:27;;;;;;;13.58;11.83;;;;;;;9.50;76.27;99357.59;1763182;79;21151;-57
2021/04/18 07:34:56;;;;;;;16.77;13.83;;;;;;;9.69;75.81;99347.13;1772897;79;21199;-59
2021/04/18 07:37:27;;;;;;;15.53;11.60;;;;;;;9.89;75.22;99346.59;1771468;79;22336;-57
2021/04/18 07:40:00;;;;;;;12.60;10.93;;;;;;;10.16;74.83;99337.92;1761146;79;21230;-58
2021/04/18 07:42:40;;;;;;;15.32;11.60;;;;;;;10.48;73.91;99337.81;1775372;79;21239;-57
2021/04/18 07:45:17;;;;;;;14.30;11.50;;;;;;;10.76;73.00;99327.52;1766962;79;21045;-58
2021/04/18 07:47:46;;;;;;;13.58;10.20;;;;;;;11.07;71.97;99333.64;1789643;79;21123;-58
2021/04/18 07:50:19;;;;;;;15.48;10.03;;;;;;;11.46;70.49;99328.19;1788683;79;21195;-60
2021/04/18 07:52:48;;;;;;;14.05;9.38;;;;;;;11.91;69.51;99324.14;1786369;79;21127;-60
2021/04/18 07:55:17;;;;;;;10.75;9.45;;;;;;;12.38;67.67;99313.91;1787515;79;21152;-59
2021/04/18 07:57:45;;;;;;;9.90;8.55;;;;;;;12.82;65.71;99311.18;1780179;79;21190;-58
2021/04/18 08:00:14;;;;;;;10.80;9.70;;;;;;;13.28;63.64;99310.84;1784734;79;21133;-57
2021/04/18 08:02:49;;;;;;;11.15;9.18;;;;;;;13.76;62.47;99303.34;1779960;79;22250;-58
2021/04/18 08:05:18;;;;;;;11.40;10.25;;;;;;;14.40;60.80;99308.47;1775119;79;21524;-62
2021/04/18 08:08:12;;;;;;;11.57;10.48;;;;;;;14.88;58.72;99302.08;1789104;79;21117;-58
2021/04/18 08:10:48;;;;;;;12.45;10.13;;;;;;;15.28;57.79;99298.94;1783294;79;21108;-58
2021/04/18 08:13:23;;;;;;;14.15;11.35;;;;;;;15.78;56.06;99288.98;1782927;79;21112;-58
2021/04/18 08:16:08;;;;;;;10.65;9.65;;;;;;;16.21;54.67;99279.10;1804687;79;21371;-59
2021/04/18 08:18:45;;;;;;;11.78;9.80;;;;;;;16.62;52.67;99279.59;1785423;79;21065;-58
2021/04/18 08:21:30;;;;;;;11.33;10.32;;;;;;;16.83;51.50;99279.80;1784903;79;21011;-60
2021/04/18 08:23:59;;;;;;;10.23;9.18;;;;;;;17.00;50.63;99271.01;1787024;78;21110;-57
2021/04/18 08:26:28;;;;;;;10.40;9.48;;;;;;;17.25;50.30;99269.72;1743403;81;21192;-58
2021/04/18 08:29:03;;;;;;;8.83;8.03;;;;;;;17.46;49.63;99271.21;1765337;80;21149;-57
2021/04/18 08:31:52;;;;;;;9.78;8.78;;;;;;;17.62;49.17;99270.18;1745699;80;21580;-59
2021/04/18 08:34:29;;;;;;;9.70;8.78;;;;;;;17.85;48.13;99269.55;1746819;81;21081;-58
2021/04/18 08:37:01;;;;;;;8.75;7.95;;;;;;;18.01;47.83;99264.11;1730873;82;21663;-57
2021/04/18 08:39:37;;;;;;;8.53;7.80;;;;;;;18.19;47.08;99258.73;1752807;81;21124;-58
2021/04/18 08:42:06;;;;;;;8.20;7.47;;;;;;;18.26;46.45;99260.81;1762156;80;25123;-58
2021/04/18 08:44:43;;;;;;;8.03;7.30;;;;;;;18.34;46.06;99260.00;1750810;81;21173;-58
2021/04/18 08:47:14;;;;;;;7.60;6.90;;;;;;;18.33;45.49;99252.95;1732553;80;21132;-59
2021/04/18 08:49:49;;;;;;;7.28;6.67;;;;;;;18.29;45.58;99254.47;1744340;80;21054;-58
2021/04/18 08:52:28;;;;;;;10.95;6.92;;;;;;;18.25;45.20;99252.45;1740276;81;21102;-58
2021/04/18 08:55:00;;;;;;;9.40;7.22;;;;;;;18.32;45.47;99243.25;1736887;81;21355;-60
2021/04/18 08:57:30;;;;;;;8.13;7.40;;;;;;;18.33;45.87;99240.01;1727200;81;21634;-59
2021/04/18 09:00:00;;;;;;;7.03;6.45;;;;;;;18.42;45.68;99235.45;1747995;80;21155;-58
2021/04/18 09:02:29;;;;;;;7.10;6.40;;;;;;;18.58;45.04;99230.00;1761299;81;21614;-60
2021/04/18 09:05:00;;;;;;;7.42;6.72;;;;;;;18.61;43.71;99231.42;1743255;81;21554;-57
2021/04/18 09:07:31;;;;;;;6.80;6.10;;;;;;;18.48;44.06;99223.79;1764478;81;21342;-57
2021/04/18 09:10:03;;;;;;;8.05;7.25;;;;;;;18.35;44.80;99229.86;1726838;81;21108;-57
2021/04/18 09:12:31;;;;;;;7.72;6.92;;;;;;;18.38;44.24;99232.91;1752325;81;21128;-59
2021/04/18 09:14:58;;;;;;;6.40;5.87;;;;;;;18.29;44.03;99226.20;1751745;81;21152;-57
2021/04/18 09:17:31;;;;;;;7.75;6.80;;;;;;;18.27;44.15;99222.91;1751399;80;21186;-59
2021/04/18 09:20:01;;;;;;;6.75;6.15;;;;;;;18.29;44.52;99222.67;1757225;80;21193;-58
2021/04/18 09:22:34;;;;;;;7.33;6.72;;;;;;;18.43;44.54;99216.09;1766975;80;21085;-58
2021/04/18 09:25:13;;;;;;;7.28;6.65;;;;;;;18.61;44.09;99218.78;1696750;82;21156;-58
2021/04/18 09:27:50;;;;;;;7.35;6.65;;;;;;;18.73;43.66;99213.42;1766343;80;21207;-59
2021/04/18 09:30:26;;;;;;;8.48;7.78;;;;;;;18.79;43.33;99207.13;1767227;80;21176;-58
2021/04/18 09:33:05;;;;;;;6.90;6.30;;;;;;;18.66;43.43;99214.05;1827655;78;22898;-58
2021/04/18 09:35:33;;;;;;;6.55;6.05;;;;;;;18.46;43.57;99204.83;1794443;79;21112;-60
2021/04/18 09:38:03;;;;;;;14.10;7.67;;;;;;;18.36;43.91;99200.52;1751762;81;21402;-59
2021/04/18 09:40:37;;;;;;;7.35;6.60;;;;;;;18.35;44.29;99200.23;1725689;82;21085;-60
2021/04/18 09:43:07;;;;;;;6.75;6.00;;;;;;;18.41;44.10;99196.09;1732514;82;21054;-61
2021/04/18 09:45:35;;;;;;;9.08;7.00;;;;;;;18.32;44.37;99198.82;1767265;80;21811;-59
2021/04/18 09:48:15;;;;;;;7.00;6.25;;;;;;;18.25;44.78;99202.65;1762150;80;21200;-58
2021/04/18 09:50:46;;;;;;;8.55;6.42;;;;;;;18.19;44.49;99198.98;1761830;80;21357;-59
2021/04/18 09:53:22;;;;;;;6.53;5.92;;;;;;;18.14;45.20;99192.63;1777458;80;21036;-57
2021/04/18 09:55:53;;;;;;;6.60;6.08;;;;;;;18.20;44.89;99187.15;1738533;82;21223;-59
2021/04/18 09:58:41;;;;;;;6.58;5.97;;;;;;;18.17;44.96;99177.37;1764207;80;21124;-62
2021/04/18 10:01:31;;;;;;;6.22;5.65;;;;;;;18.25;44.67;99173.03;1770572;80;21136;-57
2021/04/18 10:03:58;;;;;;;6.47;5.87;;;;;;;18.32;44.37;99167.86;1758552;80;21263;-59
2021/04/18 10:06:45;;;;;;;6.17;5.50;;;;;;;18.34;44.14;99172.48;1756656;80;21163;-59
2021/04/18 10:09:14;;;;;;;6.70;6.10;;;;;;;18.32;44.51;99176.45;1761639;80;21156;-58
2021/04/18 10:11:59;;;;;;;6.90;6.20;;;;;;;18.27;44.63;99175.80;1748340;80;21086;-59
2021/04/18 10:14:28;;;;;;;7.20;6.50;;;;;;;18.32;44.73;99179.14;1734612;82;26658;-62
2021/04/18 10:16:56;;;;;;;6.92;6.33;;;;;;;18.39;44.23;99175.83;1733778;81;21406;-62
2021/04/18 10:19:25;;;;;;;6.60;6.03;;;;;;;18.31;44.47;99178.31;1750406;80;21364;-58
2021/04/18 10:22:09;;;;;;;6.67;6.08;;;;;;;18.33;44.51;99174.03;1749669;80;21724;-55
2021/04/18 10:24:48;;;;;;;6.78;6.17;;;;;;;18.36;44.51;99182.50;1742572;80;21033;-60
2021/04/18 10:27:18;;;;;;;7.15;5.92;;;;;;;18.31;44.61;99172.11;1731264;81;21203;-58
2021/04/18 10:29:47;;;;;;;6.65;6.05;;;;;;;18.33;44.63;99176.21;1739815;82;21363;-58
2021/04/18 10:32:20;;;;;;;6.90;6.20;;;;;;;18.31;44.61;99173.45;1758898;80;21654;-63
2021/04/18 10:34:51;;;;;;;8.75;6.30;;;;;;;18.26;44.51;99176.00;1739957;81;21160;-58
2021/04/18 10:37:19;;;;;;;7.70;6.80;;;;;;;18.26;44.95;99175.48;1789591;79;21124;-59
2021/04/18 10:39:47;;;;;;;6.58;5.97;;;;;;;18.28;44.43;99169.86;1794274;79;21674;-60
2021/04/18 10:42:14;;;;;;;7.10;6.40;;;;;;;18.09;44.65;99171.78;1731482;82;23484;-60
2021/04/18 10:44:42;;;;;;;6.95;6.25;;;;;;;17.99;45.18;99175.50;1724154;81;22003;-58
2021/04/18 10:47:18;;;;;;;6.97;6.28;;;;;;;17.92;45.42;99169.89;1755802;81;21017;-59
2021/04/18 10:49:50;;;;;;;6.60;5.85;;;;;;;17.82;45.70;99167.73;1739009;80;21595;-60
2021/04/18 10:52:18;;;;;;;7.47;6.78;;;;;;;17.68;46.01;99172.95;1754544;80;21113;-58
2021/04/18 10:54:47;;;;;;;6.62;5.75;;;;;;;17.52;46.24;99173.52;1717184;82;21214;-60
2021/04/18 10:57:16;;;;;;;6.53;5.92;;;;;;;17.43;46.51;99169.46;1742345;81;21101;-61
2021/04/18 10:59:43;;;;;;;6.70;6.10;;;;;;;17.40;46.62;99168.55;1767195;80;21028;-62
2021/04/18 11:02:11;;;;;;;8.48;6.25;;;;;;;17.43;46.70;99167.60;1738253;82;21146;-59
2021/04/18 11:04:39;;;;;;;5.83;5.30;;;;;;;17.36;46.55;99163.33;1768778;80;21172;-61
2021/04/18 11:07:08;;;;;;;9.38;6.37;;;;;;;17.34;47.25;99166.77;1750649;81;21204;-60
2021/04/18 11:09:37;;;;;;;7.17;6.17;;;;;;;17.41;47.38;99171.04;1757513;81;21168;-61
2021/04/18 11:12:19;;;;;;;7.35;6.60;;;;;;;17.45;47.25;99163.33;1730860;81;21021;-58
2021/04/18 11:14:47;;;;;;;8.25;7.05;;;;;;;17.51;47.10;99161.11;1745168;80;21069;-59
2021/04/18 11:17:15;;;;;;;6.70;6.10;;;;;;;17.44;47.06;99163.05;1735307;82;21650;-61
2021/04/18 11:19:43;;;;;;;7.92;6.58;;;;;;;17.42;46.94;99158.39;1737009;82;22193;-59
2021/04/18 11:22:11;;;;;;;6.50;5.90;;;;;;;17.40;47.26;99155.11;1740170;82;21018;-61
2021/04/18 11:24:38;;;;;;;8.18;6.67;;;;;;;17.45;47.50;99158.78;1739013;82;21198;-58
2021/04/18 11:27:06;;;;;;;6.55;5.95;;;;;;;17.45;47.30;99157.44;1777093;79;21104;-59
2021/04/18 11:29:33;;;;;;;6.53;5.85;;;;;;;17.44;47.42;99157.13;1738463;82;21627;-59
2021/04/18 11:32:01;;;;;;;7.17;6.40;;;;;;;17.47;47.42;99154.55;1743232;80;23606;-59
2021/04/18 11:34:29;;;;;;;6.47;5.87;;;;;;;17.43;47.37;99149.30;1768905;81;21009;-58
2021/04/18 11:36:56;;;;;;;6.30;5.70;;;;;;;17.37;47.32;99140.76;1724732;80;21129;-60
2021/04/18 11:39:26;;;;;;;6.53;5.92;;;;;;;17.22;47.68;99145.15;1759111;81;21198;-59
2021/04/18 11:41:54;;;;;;;8.18;7.20;;;;;;;17.05;47.97;99147.56;1743305;80;21188;-63